Huvudsida
METAR-TAF:

METAR-TAF

Flygplatser :

Qaisumah, Saudiarabien

latitud: 28-19N, longitud: 046-07E, höjd: 358 m

Aktuellt väderrapport

Denna rapport gjordes för 40 minuter sedan, klockan 08:00 UTC
Vind 14 kt från syd
Temperatur 20°C
Fuktighet 53%
Tryck 1019 hPa
Sikt 10 km eller mer
Inga moln under 1 500 m eller inga cumulonimbus

METAR: OEPA 220800Z 18014KT CAVOK 20/10 Q1019 NOSIG

Tid: 11:40 (08:40 UTC)

Väderprognos

Denna rapport gjordes för 9 timmar och 40 minuter sedan, klockan 23:00 UTC
Prognos gäller från 22 kl. 00 UTC till 23 kl. 06 UTC
Vind 10 kt från syd/sydost i byarna ända upp till 20 kt
Sikt: 7000 m
Temporärt
från 22 kl. 06 UTC till 22 kl. 14 UTC
Sikt: 4000 m
utbrett stoft, högt damm drev

TAF: OEPA 212300Z 2200/2306 16010G20KT 7000 NSC TEMPO 2206/2214 4000 DU BLDU

Aktuella väderrapporter och prognoser från 4000 flygplatser (METAR- och TAF-rapporter).

De tillgängliga stationerna syns som gula och röda prickar på kartan.

För musen över prickarna för att se namnen på stationerna.

Klicka sedan för att få väderrapporter och prognoser.

För att ändra kartan: Klicka på de gröna knapparna med ett svart kors på för att zooma in; den gröna knappen med ett streck på för att zooma ut; eller på de gröna pilarna för angränsande kartor.


METAR-TAF: